This is the latest recevied weather packets stored in our database for station/object KN6KDD. If no packets are shown the sender has not sent any weather packets the latest 10 day(s).
| Time | Temp. | Humidity | Pressure | Rain* | Wind** | Luminosity | Snow |
|---|---|---|---|---|---|---|---|
| 1777454331 | 10.56° C | 83% | 1359.3 hPa | 0 mm | - | 0 W/m² | - |
| 1777454028 | 10.56° C | 82% | 1359.2 hPa | 0 mm | - | 0 W/m² | - |
| 1777453725 | 10.56° C | 82% | 1359.5 hPa | 0 mm | - | 0 W/m² | - |
| 1777453423 | 10.56° C | 82% | 1359.3 hPa | 0 mm | - | 0 W/m² | - |
| 1777453118 | 10.56° C | 82% | 1359.3 hPa | 0 mm | - | 0 W/m² | - |
| 1777452816 | 10.56° C | 81% | 1359.3 hPa | 0 mm | - | 0 W/m² | - |
| 1777452512 | 11.11° C | 79% | 1359.6 hPa | 0 mm | - | 0 W/m² | - |
| 1777452209 | 11.67° C | 76% | 1359.7 hPa | 0 mm | - | 0 W/m² | - |
| 1777451908 | 11.11° C | 78% | 1359.3 hPa | 0 mm | - | 0 W/m² | - |
| 1777451606 | 11.67° C | 76% | 1359.5 hPa | 0 mm | - | 0 W/m² | - |
| 1777451301 | 11.67° C | 75% | 1359.6 hPa | 0 mm | - | 0 W/m² | - |
| 1777450997 | 11.67° C | 76% | 1359.9 hPa | 0 mm | - | 0 W/m² | - |
| 1777450693 | 11.67° C | 76% | 1359.6 hPa | 0 mm | - | 0 W/m² | - |
| 1777450389 | 11.11° C | 77% | 1359.9 hPa | 0 mm | - | 0 W/m² | - |
| 1777450086 | 10.56° C | 80% | 1359.7 hPa | 0 mm | - | 0 W/m² | - |
| 1777449781 | 10.56° C | 82% | 1359.9 hPa | 0 mm | - | 0 W/m² | - |
| 1777449478 | 10.56° C | 79% | 1359.7 hPa | 0 mm | - | 0 W/m² | - |
| 1777449174 | 11.11° C | 77% | 1359.9 hPa | 0 mm | - | 0 W/m² | - |
| 1777448869 | 11.67° C | 76% | 1359.9 hPa | 0 mm | - | 0 W/m² | - |
| 1777448567 | 11.67° C | 74% | 1359.9 hPa | 0 mm | - | 0 W/m² | - |
| 1777448263 | 12.22° C | 72% | 1359.9 hPa | 0 mm | - | 0 W/m² | - |
| 1777447959 | 12.22° C | 72% | 1359.7 hPa | 0 mm | - | 0 W/m² | - |
| 1777447655 | 12.22° C | 73% | 1359.7 hPa | 0 mm | - | 0 W/m² | - |
| 1777447352 | 12.78° C | 69% | 1359.6 hPa | 0 mm | - | 0 W/m² | - |
| 1777447049 | 12.78° C | 69% | 1359.7 hPa | 0 mm | - | 0 W/m² | - |
* Rain latest hour (hover to see other rain measurements)
** Current wind speed in m/s (hover to see current wind gust speed)